00CO Cass Field VFR

Weather Station
near_me 30 nm
schedule 1 Hrs
thunderstorm
21 °C (70 °F)
In the vicinity
  • Altimeter
    29.93 inHg (1’014 hPa)
  • Dew point
    10 °C (50 °F)
  • Rel. humidity
    49.4 %
  • Air density
    1.20 kg/m3
  • Wind chill
    21 °C (70 °F)
VisibilityMore than 10 kmCeilingNone
0 ft
2’500 ft
5’000 ft
7’500 ft
10’000 ft
FEW 12’000 ft
KFMM 292235Z AUTO 14018G23KT 10SM VCTS FEW120 21/10 A2993 RMK AO2 LTG DSNT SE AND S
Wind 18 kt / gust 23 kt to SE

Runways

No runways matched for this airport.

Remarks

  • Report
    is fully automated
  • Automated station
    with precipitation descriminator
Information on this website is for private use only. Do not use for real life flight.
arrow_upward